Elkton, Kentucky
Current Conditions -  °F | °C
As of 2:52 AM on Monday 22 Dec 2014 (Local Time) from KCKV Reporting Station
Overcast Overcast  
Wind Chill: 38°   Ceiling: 10000
Heat Index: 42°   Visibility: 10mi
Dew Point: 38°   Wind: 7mph
Humidity: 85%   Direction: 130°SE
Pressure: 29.94"   Gusts: NA
Location:  36.81°N, 87.15°W
Report Text: KCKV 220852Z AUTO 13006KT 10SM SCT016 OVC100 06/03 A2994 RMK AO2 SLP139 T00560033 56009
Loading
Personal Weather Stations






























Interactive Weather Map New forecast layout! Learn more

10-Day Weather Forecast

Advertisements
Track Severe Weather on mobile